createdAt,value
2022-10-16T00:01:30.170Z,10.02
2022-10-16T00:16:31.998Z,10.07
2022-10-16T00:31:33.621Z,8.12
2022-10-16T00:46:35.045Z,8.83
2022-10-16T01:01:36.668Z,8.97
2022-10-16T01:16:55.044Z,8.65
2022-10-16T01:32:09.771Z,8.89
2022-10-16T01:47:11.763Z,9.78
2022-10-16T02:02:14.325Z,11.03
2022-10-16T02:17:17.571Z,9.93
2022-10-16T02:32:21.485Z,8.83
2022-10-16T02:47:22.951Z,8.07
2022-10-16T03:02:24.712Z,8.71
2022-10-16T03:17:26.698Z,10.00
2022-10-16T03:32:29.634Z,10.24
2022-10-16T03:47:31.748Z,7.72
2022-10-16T04:02:33.245Z,7.66
2022-10-16T04:17:34.812Z,7.61
2022-10-16T04:32:36.316Z,8.01
2022-10-16T04:47:37.815Z,9.49
2022-10-16T05:02:39.282Z,10.93
2022-10-16T05:17:42.609Z,11.12
2022-10-16T05:32:49.897Z,11.16
2022-10-16T05:47:52.362Z,13.36
2022-10-16T06:02:54.539Z,11.61
2022-10-16T06:17:55.996Z,14.04
2022-10-16T06:32:57.454Z,15.06
2022-10-16T06:47:58.912Z,13.64
2022-10-16T07:03:00.372Z,14.77
2022-10-16T07:18:01.901Z,14.70
2022-10-16T07:33:03.400Z,16.41
2022-10-16T07:48:04.931Z,15.48
2022-10-16T08:03:06.437Z,16.25
2022-10-16T08:18:07.915Z,17.38
2022-10-16T08:33:09.467Z,18.42
2022-10-16T08:48:10.921Z,18.17
2022-10-16T09:03:18.588Z,18.23
2022-10-16T09:18:30.148Z,18.11
2022-10-16T09:33:36.349Z,18.51
2022-10-16T09:48:39.322Z,18.30
2022-10-16T10:03:42.088Z,18.47
2022-10-16T10:18:43.608Z,17.82
2022-10-16T10:33:52.202Z,19.01
2022-10-16T10:48:59.457Z,19.45
2022-10-16T11:04:25.828Z,19.12
2022-10-16T11:19:46.214Z,18.81
2022-10-16T11:34:53.315Z,19.23
2022-10-16T11:49:59.275Z,19.56
2022-10-16T12:05:19.495Z,18.99
2022-10-16T12:20:22.836Z,19.54
2022-10-16T12:35:26.471Z,20.35
2022-10-16T12:50:38.522Z,19.57
2022-10-16T13:05:43.117Z,20.23
2022-10-16T13:20:53.833Z,19.32
2022-10-16T13:35:56.382Z,19.80
2022-10-16T13:51:01.871Z,19.76
2022-10-16T14:06:04.850Z,18.79
2022-10-16T14:21:13.706Z,18.12
2022-10-16T14:36:16.617Z,17.77
2022-10-16T14:51:19.508Z,16.95
2022-10-16T15:06:21.044Z,16.49
2022-10-16T15:21:27.422Z,16.17
2022-10-16T15:36:30.053Z,15.40
2022-10-16T15:51:34.113Z,15.10
2022-10-16T16:06:38.588Z,14.36
2022-10-16T16:21:40.079Z,13.92
2022-10-16T16:36:41.630Z,12.95
2022-10-16T16:51:43.179Z,12.89
2022-10-16T17:06:44.699Z,11.95
2022-10-16T17:21:48.597Z,12.29
2022-10-16T17:36:50.133Z,12.96
2022-10-16T17:51:52.763Z,13.22
2022-10-16T18:06:56.161Z,14.17
2022-10-16T18:21:58.007Z,14.30
2022-10-16T18:36:59.762Z,14.83
2022-10-16T18:52:03.225Z,14.39
2022-10-16T19:07:04.713Z,14.07
2022-10-16T19:22:14.333Z,14.21
2022-10-16T19:37:15.912Z,13.84
2022-10-16T19:52:17.593Z,12.59
2022-10-16T20:07:19.168Z,11.50
2022-10-16T20:22:20.621Z,10.08
2022-10-16T20:37:22.082Z,10.30
2022-10-16T20:52:23.610Z,9.99
2022-10-16T21:07:25.452Z,9.25
2022-10-16T21:22:30.952Z,10.01
2022-10-16T21:37:33.089Z,9.64
2022-10-16T21:52:34.570Z,9.14
2022-10-16T22:16:07.590Z,8.74
2022-10-16T22:31:10.737Z,8.80
2022-10-16T22:46:14.200Z,8.74
2022-10-16T23:01:23.461Z,8.45
2022-10-16T23:16:25.445Z,8.40
2022-10-16T23:31:27.585Z,9.23
2022-10-16T23:46:29.062Z,7.96
